Time;durP1;ratioP1;P1;durP2;ratioP2;P2;SDS_P1;SDS_P2;PMS_P1;PMS_P2;Temp;Humidity;BMP_temperature;BMP_pressure;BME280_temperature;BME280_humidity;BME280_pressure;Samples;Min_cycle;Max_cycle;Signal;HPM_P1;HPM_P2
2021/09/23 00:00:48;;;;;;;19.58;17.10;;;19.80;79.10;;;;;;4973992;28;20022;-64
2021/09/23 00:03:20;;;;;;;20.05;17.80;;;19.70;58.60;;;;;;4956605;28;20049;-64
2021/09/23 00:05:45;;;;;;;19.30;17.30;;;19.70;61.90;;;;;;4974796;28;20102;-65
2021/09/23 00:08:11;;;;;;;19.60;17.70;;;19.60;63.20;;;;;;4973561;28;20185;-64
2021/09/23 00:10:39;;;;;;;22.75;17.98;;;19.50;72.90;;;;;;4974272;28;20429;-64
2021/09/23 00:13:05;;;;;;;21.02;18.75;;;;;;;;;;4973424;28;20121;-65
2021/09/23 00:15:33;;;;;;;21.05;18.95;;;;;;;;;;4974129;28;20038;-65
2021/09/23 00:18:03;;;;;;;21.88;18.08;;;19.80;84.90;;;;;;4956021;28;20046;-65
2021/09/23 00:20:31;;;;;;;20.35;18.08;;;19.40;83.70;;;;;;4974558;28;20031;-64
2021/09/23 00:22:57;;;;;;;21.45;18.50;;;19.50;78.90;;;;;;4973490;28;20066;-64
2021/09/23 00:25:28;;;;;;;21.17;18.90;;;19.60;67.10;;;;;;4973204;28;20054;-65
2021/09/23 00:27:56;;;;;;;25.63;17.88;;;19.40;66.30;;;;;;4973447;28;20034;-65
2021/09/23 00:30:22;;;;;;;20.65;18.42;;;19.50;65.60;;;;;;4973871;28;20077;-65
2021/09/23 00:32:49;;;;;;;20.65;18.20;;;19.40;64.40;;;;;;4973221;28;20461;-65
2021/09/23 00:35:16;;;;;;;20.30;17.98;;;19.30;61.60;;;;;;4973172;28;20039;-64
2021/09/23 00:37:42;;;;;;;20.05;17.75;;;19.30;57.20;;;;;;4972046;28;20049;-65
2021/09/23 00:40:09;;;;;;;21.38;18.65;;;19.20;57.30;;;;;;4974017;28;20038;-65
2021/09/23 00:42:36;;;;;;;22.63;19.23;;;19.30;57.90;;;;;;4972977;28;20163;-65
2021/09/23 00:45:04;;;;;;;21.65;18.45;;;19.30;60.70;;;;;;4956367;28;20027;-64
2021/09/23 00:47:29;;;;;;;25.67;19.15;;;19.40;62.70;;;;;;4973142;28;20097;-64
2021/09/23 00:49:55;;;;;;;20.20;18.00;;;19.30;67.00;;;;;;4973617;28;20508;-65
2021/09/23 00:52:24;;;;;;;20.27;18.13;;;19.30;69.70;;;;;;4971579;28;20436;-64
2021/09/23 00:54:51;;;;;;;22.02;18.67;;;19.40;71.60;;;;;;4971786;28;20045;-65
2021/09/23 00:57:21;;;;;;;20.05;17.95;;;19.30;71.20;;;;;;4972102;28;20035;-65
2021/09/23 00:59:48;;;;;;;20.60;18.38;;;19.40;71.10;;;;;;4974102;28;20015;-64
2021/09/23 01:02:15;;;;;;;18.80;16.80;;;19.30;71.10;;;;;;4973127;28;20034;-65
2021/09/23 01:04:44;;;;;;;18.98;16.92;;;19.40;71.60;;;;;;4962022;28;20098;-64
2021/09/23 01:07:15;;;;;;;20.77;17.50;;;19.30;72.20;;;;;;4960057;28;20483;-65
2021/09/23 01:09:46;;;;;;;20.88;17.75;;;19.30;73.10;;;;;;4973508;28;20385;-64
2021/09/23 01:12:13;;;;;;;23.00;17.75;;;19.30;73.90;;;;;;4975392;28;20547;-65
2021/09/23 01:14:39;;;;;;;20.73;17.55;;;19.20;73.30;;;;;;4976808;28;20030;-64
2021/09/23 01:17:06;;;;;;;20.90;18.00;;;19.20;73.50;;;;;;4956114;28;20031;-64
2021/09/23 01:19:33;;;;;;;21.83;18.33;;;19.30;75.40;;;;;;4976938;28;20029;-64
2021/09/23 01:21:58;;;;;;;19.55;17.48;;;19.20;77.60;;;;;;4975539;28;20102;-65
2021/09/23 01:24:25;;;;;;;18.55;16.67;;;19.20;79.50;;;;;;4977132;28;20264;-64
2021/09/23 01:26:52;;;;;;;18.98;16.65;;;19.20;80.90;;;;;;4977054;28;20053;-64
2021/09/23 01:29:19;;;;;;;20.65;18.20;;;19.20;82.40;;;;;;4976702;28;20380;-64
2021/09/23 01:31:44;;;;;;;23.10;17.70;;;19.20;83.30;;;;;;4975703;28;20164;-64
2021/09/23 01:34:11;;;;;;;20.80;18.60;;;19.20;78.60;;;;;;4976669;28;20502;-64
2021/09/23 01:36:37;;;;;;;18.67;16.48;;;19.10;75.90;;;;;;4976254;28;20023;-64
2021/09/23 01:39:03;;;;;;;18.83;16.77;;;19.20;77.20;;;;;;4977697;28;20414;-64
2021/09/23 01:41:29;;;;;;;21.15;16.42;;;19.20;80.00;;;;;;4974622;28;20477;-64
2021/09/23 01:43:54;;;;;;;22.38;16.85;;;19.20;80.60;;;;;;4976450;28;20035;-65
2021/09/23 01:46:20;;;;;;;19.60;17.20;;;19.10;78.60;;;;;;4975168;28;20065;-65
2021/09/23 01:48:46;;;;;;;18.67;15.70;;;19.10;77.50;;;;;;4975582;28;20167;-64
2021/09/23 01:51:23;;;;;;;19.27;17.00;;;19.10;76.60;;;;;;4958989;28;20030;-64
2021/09/23 01:53:49;;;;;;;19.95;16.73;;;19.00;75.10;;;;;;4957964;28;20476;-64
2021/09/23 01:56:16;;;;;;;18.50;15.77;;;19.00;71.30;;;;;;4976512;28;20117;-65
2021/09/23 01:58:42;;;;;;;17.33;15.63;;;19.00;66.10;;;;;;4975318;28;20041;-64
2021/09/23 02:01:07;;;;;;;18.10;15.68;;;19.00;63.90;;;;;;4976213;28;20023;-65
2021/09/23 02:03:33;;;;;;;16.83;15.02;;;19.00;64.10;;;;;;4975538;28;20086;-64
2021/09/23 02:05:58;;;;;;;19.77;15.93;;;19.00;63.90;;;;;;4975951;28;20023;-64
2021/09/23 02:08:24;;;;;;;18.48;15.23;;;18.90;61.50;;;;;;4975299;28;20042;-65
2021/09/23 02:10:50;;;;;;;16.77;15.07;;;18.90;61.30;;;;;;4975887;28;20484;-64
2021/09/23 02:13:15;;;;;;;17.92;15.98;;;18.90;61.90;;;;;;4957811;28;20038;-65
2021/09/23 02:15:41;;;;;;;19.60;15.40;;;19.00;63.80;;;;;;4974348;28;20033;-65
2021/09/23 02:18:07;;;;;;;16.83;15.02;;;19.00;64.80;;;;;;4958117;28;20496;-65
2021/09/23 02:20:32;;;;;;;18.20;16.25;;;19.00;66.50;;;;;;4959042;28;20026;-65
2021/09/23 02:22:58;;;;;;;21.23;16.38;;;18.90;68.00;;;;;;4973603;28;20031;-65
2021/09/23 02:25:23;;;;;;;17.27;15.57;;;18.90;70.60;;;;;;4975769;28;20027;-65
2021/09/23 02:27:49;;;;;;;18.88;16.30;;;18.90;72.00;;;;;;4974410;28;20539;-65
2021/09/23 02:30:15;;;;;;;19.40;16.27;;;18.90;71.40;;;;;;4976319;28;20031;-65
2021/09/23 02:32:40;;;;;;;17.90;15.30;;;18.90;71.30;;;;;;4974372;28;20443;-65
2021/09/23 02:35:07;;;;;;;16.58;14.80;;;18.90;68.90;;;;;;4974119;28;20037;-64
2021/09/23 02:37:33;;;;;;;18.02;16.13;;;18.90;68.40;;;;;;4974790;28;20378;-65
2021/09/23 02:39:59;;;;;;;19.30;15.45;;;18.90;65.20;;;;;;4975407;28;20034;-65
2021/09/23 02:42:25;;;;;;;17.35;14.88;;;18.80;64.00;;;;;;4974906;28;20058;-64
2021/09/23 02:44:51;;;;;;;19.42;15.65;;;18.80;63.20;;;;;;4974470;28;20085;-64
2021/09/23 02:47:17;;;;;;;17.60;15.80;;;18.80;62.70;;;;;;4974296;28;20404;-64
2021/09/23 02:49:43;;;;;;;17.88;15.02;;;18.70;62.50;;;;;;4975101;28;20362;-64
2021/09/23 02:52:09;;;;;;;18.05;16.02;;;18.70;62.30;;;;;;4973015;28;20038;-64
2021/09/23 02:54:34;;;;;;;19.05;16.33;;;18.80;62.10;;;;;;4971748;28;20035;-64
2021/09/23 02:57:00;;;;;;;18.10;15.07;;;18.90;62.60;;;;;;4954941;28;20093;-64
2021/09/23 02:59:26;;;;;;;18.08;16.02;;;18.90;62.90;;;;;;4973819;28;20034;-64
2021/09/23 03:01:51;;;;;;;16.48;14.77;;;19.00;62.80;;;;;;4956769;28;20026;-64
2021/09/23 03:04:17;;;;;;;16.73;14.93;;;18.90;63.10;;;;;;4972006;28;20490;-65
2021/09/23 03:06:42;;;;;;;17.23;14.77;;;19.00;62.90;;;;;;4938025;29;20031;-65
2021/09/23 03:09:11;;;;;;;17.40;15.52;;;19.10;62.60;;;;;;4973806;28;20547;-64
2021/09/23 03:11:37;;;;;;;19.35;15.50;;;19.10;62.40;;;;;;4974497;28;20109;-65
2021/09/23 03:14:03;;;;;;;17.58;15.48;;;19.10;62.40;;;;;;4956096;28;20121;-64
2021/09/23 03:16:29;;;;;;;17.25;15.30;;;19.20;62.20;;;;;;4974704;28;20106;-65
2021/09/23 03:18:55;;;;;;;20.58;15.77;;;19.20;61.90;;;;;;4973282;28;20051;-64
2021/09/23 03:21:20;;;;;;;16.45;14.65;;;19.20;61.70;;;;;;4975232;28;20081;-65
2021/09/23 03:23:46;;;;;;;20.58;15.77;;;19.10;61.60;;;;;;4973489;28;20504;-65
2021/09/23 03:26:13;;;;;;;17.90;14.57;;;19.10;61.40;;;;;;4972552;28;20027;-65
2021/09/23 03:28:39;;;;;;;15.90;14.20;;;19.20;61.90;;;;;;4972389;28;20038;-65
2021/09/23 03:31:05;;;;;;;18.13;15.73;;;19.20;61.60;;;;;;4974342;28;20031;-65
2021/09/23 03:33:31;;;;;;;17.23;15.43;;;19.20;61.20;;;;;;4972467;28;20110;-65
2021/09/23 03:35:57;;;;;;;18.10;14.27;;;19.30;61.10;;;;;;4974346;28;20083;-65
2021/09/23 03:38:22;;;;;;;15.50;13.88;;;19.30;61.30;;;;;;4973537;28;20046;-65
2021/09/23 03:40:49;;;;;;;16.35;13.63;;;19.30;60.90;;;;;;4974242;28;20147;-65
2021/09/23 03:43:19;;;;;;;16.73;14.32;;;19.30;60.90;;;;;;4955459;28;20078;-65
2021/09/23 03:45:49;;;;;;;14.43;12.98;;;19.30;61.00;;;;;;4974158;28;20031;-64
2021/09/23 03:48:15;;;;;;;16.02;13.50;;;19.40;61.10;;;;;;4972628;28;20134;-65
2021/09/23 03:50:40;;;;;;;16.73;14.30;;;19.40;60.50;;;;;;4973460;28;20027;-65
2021/09/23 03:53:06;;;;;;;15.52;13.43;;;19.40;60.20;;;;;;4972269;28;20378;-65
2021/09/23 03:55:32;;;;;;;17.67;13.48;;;19.30;60.00;;;;;;4973371;28;20030;-65
2021/09/23 03:57:57;;;;;;;17.02;13.93;;;19.40;60.20;;;;;;4972397;28;20500;-64
2021/09/23 04:00:25;;;;;;;15.00;12.30;;;19.40;59.70;;;;;;4972377;28;20041;-64
2021/09/23 04:02:51;;;;;;;15.90;12.82;;;19.40;59.90;;;;;;4972350;28;20109;-64
2021/09/23 04:05:17;;;;;;;14.95;13.05;;;19.40;59.50;;;;;;4973187;28;20027;-64
2021/09/23 04:07:42;;;;;;;15.32;12.80;;;19.30;59.60;;;;;;4969500;28;20384;-65
2021/09/23 04:10:09;;;;;;;15.25;13.55;;;19.30;59.20;;;;;;4973219;28;20171;-64
2021/09/23 04:12:36;;;;;;;13.85;12.35;;;19.30;59.30;;;;;;4954555;28;20035;-65
2021/09/23 04:15:03;;;;;;;16.20;12.90;;;19.30;59.00;;;;;;4973356;28;20038;-64
2021/09/23 04:17:29;;;;;;;17.95;12.45;;;19.30;59.00;;;;;;4971867;28;20046;-65
2021/09/23 04:19:55;;;;;;;17.25;12.77;;;19.30;58.90;;;;;;4973001;28;20031;-64
2021/09/23 04:22:20;;;;;;;15.15;12.80;;;19.40;59.50;;;;;;4972826;28;20026;-65
2021/09/23 04:24:47;;;;;;;14.55;12.95;;;19.30;58.80;;;;;;4973014;28;20046;-64
2021/09/23 04:27:13;;;;;;;15.60;12.00;;;19.30;58.50;;;;;;4973269;28;20031;-64
2021/09/23 04:29:42;;;;;;;13.60;12.15;;;19.30;58.70;;;;;;4971303;28;20077;-65
2021/09/23 04:32:08;;;;;;;14.10;11.75;;;19.30;58.40;;;;;;4973314;28;20077;-64
2021/09/23 04:34:34;;;;;;;14.38;11.85;;;19.40;59.30;;;;;;4972476;28;20109;-64
2021/09/23 04:36:59;;;;;;;13.93;12.43;;;19.30;58.30;;;;;;4972263;28;21968;-64
2021/09/23 04:39:25;;;;;;;16.33;12.77;;;19.30;59.00;;;;;;4972546;28;20038;-64
2021/09/23 04:41:51;;;;;;;13.68;12.02;;;19.30;59.00;;;;;;4970753;28;20445;-64
2021/09/23 04:44:16;;;;;;;14.52;12.27;;;19.30;59.20;;;;;;4953899;28;20113;-64
2021/09/23 04:46:42;;;;;;;13.88;12.05;;;19.30;59.10;;;;;;4975924;28;20045;-64
2021/09/23 04:49:07;;;;;;;15.57;13.88;;;19.30;59.20;;;;;;4939157;28;1070030;-65
2021/09/23 04:51:33;;;;;;;15.20;13.05;;;19.30;59.00;;;;;;4977331;28;20042;-64
2021/09/23 04:54:00;;;;;;;14.77;13.10;;;19.30;59.50;;;;;;4974179;28;20057;-64
2021/09/23 04:56:26;;;;;;;14.30;12.80;;;19.30;59.30;;;;;;4966324;28;20029;-64
2021/09/23 04:58:52;;;;;;;16.40;13.77;;;19.20;59.50;;;;;;4976380;28;20110;-64
2021/09/23 05:01:17;;;;;;;14.13;12.60;;;19.20;59.30;;;;;;4976336;28;20408;-64
2021/09/23 05:03:43;;;;;;;16.33;14.35;;;19.20;59.60;;;;;;4976096;28;20054;-64
2021/09/23 05:06:09;;;;;;;15.70;13.77;;;19.10;59.30;;;;;;4958550;28;20054;-64
2021/09/23 05:08:34;;;;;;;20.30;13.93;;;19.20;59.30;;;;;;4975634;28;20099;-64
2021/09/23 05:11:00;;;;;;;15.90;13.80;;;19.10;59.30;;;;;;4976179;28;20393;-64
2021/09/23 05:13:26;;;;;;;17.08;13.18;;;19.20;59.10;;;;;;4974425;28;20065;-64
2021/09/23 05:15:52;;;;;;;16.40;14.05;;;19.20;59.20;;;;;;4976732;28;20429;-64
2021/09/23 05:18:17;;;;;;;21.95;14.52;;;19.20;59.20;;;;;;4976118;28;20045;-65
2021/09/23 05:20:43;;;;;;;15.77;14.00;;;19.20;58.90;;;;;;4977211;28;20031;-65
2021/09/23 05:23:08;;;;;;;15.68;13.15;;;19.20;59.10;;;;;;4975382;28;20142;-65
2021/09/23 05:25:35;;;;;;;16.77;14.07;;;19.00;59.50;;;;;;4976724;28;20049;-65
2021/09/23 05:28:00;;;;;;;17.20;14.50;;;19.10;59.30;;;;;;4976061;28;20034;-65
2021/09/23 05:30:26;;;;;;;20.23;14.98;;;19.10;59.40;;;;;;4976416;28;20027;-64
2021/09/23 05:32:55;;;;;;;20.65;14.68;;;19.20;59.50;;;;;;4975275;28;20035;-65
2021/09/23 05:35:21;;;;;;;17.13;14.85;;;19.20;59.80;;;;;;4976365;28;20086;-64
2021/09/23 05:37:47;;;;;;;18.25;13.68;;;19.20;59.50;;;;;;4975473;28;20126;-64
2021/09/23 05:40:14;;;;;;;18.75;14.05;;;19.30;59.50;;;;;;4976368;28;20114;-64
2021/09/23 05:42:41;;;;;;;20.38;15.52;;;19.20;59.10;;;;;;4974718;28;20034;-64
2021/09/23 05:45:10;;;;;;;17.30;15.10;;;19.20;58.70;;;;;;4975392;28;20038;-65
2021/09/23 05:47:40;;;;;;;19.05;15.02;;;19.10;58.70;;;;;;4975908;28;20047;-64
2021/09/23 05:50:08;;;;;;;16.73;14.55;;;19.10;59.00;;;;;;4975545;28;20507;-64
2021/09/23 05:52:34;;;;;;;19.02;15.05;;;19.20;58.60;;;;;;4976156;28;20054;-65
2021/09/23 05:55:00;;;;;;;16.70;13.90;;;19.20;58.60;;;;;;4970025;28;20059;-64
2021/09/23 05:57:33;;;;;;;17.80;13.93;;;19.40;58.90;;;;;;4956253;28;20039;-65
2021/09/23 05:59:59;;;;;;;19.42;15.02;;;19.40;58.30;;;;;;4973500;28;20026;-64
2021/09/23 06:02:25;;;;;;;18.48;14.63;;;19.40;58.40;;;;;;4976430;28;20089;-64
2021/09/23 06:04:51;;;;;;;17.15;14.63;;;19.30;58.20;;;;;;4968011;28;20035;-65
2021/09/23 06:07:16;;;;;;;16.90;12.98;;;19.30;58.20;;;;;;4959252;28;20035;-64
2021/09/23 06:09:42;;;;;;;17.42;13.88;;;19.40;58.20;;;;;;4974616;28;20027;-64
2021/09/23 06:12:08;;;;;;;16.52;14.65;;;19.30;57.80;;;;;;4975393;28;20034;-65
2021/09/23 06:14:33;;;;;;;15.25;13.68;;;19.40;58.30;;;;;;4973990;28;20035;-65
2021/09/23 06:16:59;;;;;;;18.95;13.82;;;19.50;58.00;;;;;;4975763;28;20027;-64
2021/09/23 06:19:25;;;;;;;17.95;13.43;;;19.50;58.10;;;;;;4973604;28;20505;-65
2021/09/23 06:21:51;;;;;;;15.55;13.20;;;19.40;58.00;;;;;;4975550;28;20019;-64
2021/09/23 06:24:16;;;;;;;18.42;14.13;;;19.50;58.10;;;;;;4974438;28;20027;-64
2021/09/23 06:26:42;;;;;;;18.25;14.75;;;19.40;58.20;;;;;;4975757;28;20023;-65
2021/09/23 06:29:08;;;;;;;17.98;14.63;;;19.30;58.10;;;;;;4974690;28;20512;-64
2021/09/23 06:31:35;;;;;;;16.40;13.57;;;19.30;57.80;;;;;;4974613;28;20031;-64
2021/09/23 06:34:01;;;;;;;17.90;14.02;;;19.30;58.20;;;;;;4975016;28;20030;-64
2021/09/23 06:36:27;;;;;;;20.90;14.73;;;19.30;58.50;;;;;;4975426;28;20034;-64
2021/09/23 06:38:53;;;;;;;15.40;12.98;;;19.30;58.60;;;;;;4974106;28;20039;-64
2021/09/23 06:41:18;;;;;;;15.25;13.15;;;19.30;58.60;;;;;;4971167;28;20540;-63
2021/09/23 06:43:45;;;;;;;19.35;13.43;;;19.30;59.30;;;;;;4957915;28;20062;-64
2021/09/23 06:46:13;;;;;;;15.05;13.40;;;19.30;58.70;;;;;;4956225;28;20492;-64
2021/09/23 06:48:38;;;;;;;14.52;12.90;;;19.20;59.00;;;;;;4958281;28;20038;-64
2021/09/23 06:51:04;;;;;;;18.05;12.73;;;19.20;59.00;;;;;;4973908;28;20422;-64
2021/09/23 06:53:30;;;;;;;18.23;14.20;;;19.20;59.20;;;;;;4973896;28;20130;-64
2021/09/23 06:55:55;;;;;;;15.02;12.77;;;19.10;58.40;;;;;;4971895;28;20480;-64
2021/09/23 06:58:21;;;;;;;15.63;13.55;;;19.30;58.50;;;;;;4973733;28;20729;-63
2021/09/23 07:00:47;;;;;;;18.20;13.43;;;19.20;58.80;;;;;;4974189;28;20098;-64
2021/09/23 07:03:12;;;;;;;18.13;12.00;;;19.20;58.80;;;;;;4973644;28;20529;-62
2021/09/23 07:05:42;;;;;;;14.10;11.52;;;19.20;58.60;;;;;;4957344;28;20485;-63
2021/09/23 07:08:08;;;;;;;16.15;12.88;;;19.20;58.50;;;;;;4973048;28;20045;-63
2021/09/23 07:10:34;;;;;;;12.95;11.30;;;19.20;58.50;;;;;;4955425;28;20109;-63
2021/09/23 07:12:59;;;;;;;15.18;10.95;;;19.30;58.20;;;;;;4974467;28;20121;-63
2021/09/23 07:15:25;;;;;;;13.15;11.73;;;19.30;58.20;;;;;;4973663;28;20093;-63
2021/09/23 07:17:50;;;;;;;15.60;12.38;;;19.20;57.90;;;;;;4974484;28;20038;-63
2021/09/23 07:20:16;;;;;;;15.07;12.75;;;19.10;57.70;;;;;;4953688;28;20029;-64
2021/09/23 07:22:41;;;;;;;15.25;11.88;;;19.20;58.20;;;;;;4955122;29;20034;-64
2021/09/23 07:25:07;;;;;;;15.25;11.98;;;19.30;58.00;;;;;;4961162;28;20106;-64
2021/09/23 07:27:33;;;;;;;16.55;13.20;;;19.40;57.80;;;;;;4955145;29;20031;-64
2021/09/23 07:29:58;;;;;;;17.38;12.52;;;19.30;57.80;;;;;;4968992;28;20094;-64
2021/09/23 07:32:24;;;;;;;13.23;9.60;;;19.40;57.50;;;;;;4974057;28;20034;-63
2021/09/23 07:34:50;;;;;;;13.02;10.75;;;19.50;56.00;;;;;;4972415;28;20035;-63
2021/09/23 07:37:16;;;;;;;18.13;11.90;;;19.70;56.00;;;;;;4973062;28;20122;-63
2021/09/23 07:39:41;;;;;;;18.10;11.27;;;19.70;55.40;;;;;;4971601;28;20117;-64
2021/09/23 07:42:07;;;;;;;13.35;11.35;;;19.90;55.90;;;;;;4972146;28;20069;-64
2021/09/23 07:44:36;;;;;;;14.50;11.40;;;19.90;55.20;;;;;;4972549;28;20398;-63
2021/09/23 07:47:02;;;;;;;12.93;11.15;;;20.10;55.00;;;;;;4973948;28;20548;-63
2021/09/23 07:49:28;;;;;;;18.05;10.80;;;20.10;54.90;;;;;;4973309;28;20031;-64
2021/09/23 07:51:53;;;;;;;14.40;11.90;;;19.90;54.70;;;;;;4974057;28;20053;-64
2021/09/23 07:54:19;;;;;;;15.07;11.52;;;19.80;55.00;;;;;;4972999;28;20177;-63
2021/09/23 07:56:45;;;;;;;12.50;11.18;;;19.70;55.00;;;;;;4974020;28;20041;-63
2021/09/23 07:59:11;;;;;;;15.00;9.50;;;19.70;55.00;;;;;;4973068;28;20069;-63
2021/09/23 08:01:37;;;;;;;16.48;12.07;;;19.60;54.80;;;;;;4973883;28;20106;-63
2021/09/23 08:04:03;;;;;;;13.43;11.50;;;19.60;55.40;;;;;;4970031;28;20031;-63
2021/09/23 08:06:29;;;;;;;12.52;10.45;;;19.70;56.00;;;;;;4972821;28;20034;-63
2021/09/23 08:08:57;;;;;;;14.82;10.50;;;19.80;55.40;;;;;;4973285;28;20038;-63
2021/09/23 08:11:23;;;;;;;15.60;11.38;;;19.80;55.50;;;;;;4973727;28;20085;-63
2021/09/23 08:13:50;;;;;;;17.02;11.18;;;19.70;55.30;;;;;;4954880;28;20027;-63
2021/09/23 08:16:15;;;;;;;13.52;10.60;;;19.80;55.50;;;;;;4973594;28;20035;-63
2021/09/23 08:18:41;;;;;;;12.05;10.48;;;19.80;55.20;;;;;;4973171;28;20085;-63
2021/09/23 08:21:07;;;;;;;12.82;10.55;;;19.80;54.90;;;;;;4979277;28;20390;-63
2021/09/23 08:23:36;;;;;;;17.63;12.73;;;19.90;55.70;;;;;;4976828;28;20443;-62
2021/09/23 08:26:02;;;;;;;15.95;12.23;;;19.80;55.10;;;;;;4978262;28;20041;-63
2021/09/23 08:28:29;;;;;;;13.60;11.80;;;19.80;55.00;;;;;;4979234;28;20106;-62
2021/09/23 08:30:56;;;;;;;17.63;12.20;;;19.80;55.40;;;;;;4976743;28;20544;-62
2021/09/23 08:33:22;;;;;;;14.75;13.02;;;19.80;56.10;;;;;;4978763;28;20031;-63
2021/09/23 08:35:48;;;;;;;15.13;13.35;;;19.90;55.90;;;;;;4979474;28;20035;-64
2021/09/23 08:38:18;;;;;;;16.98;12.68;;;20.00;56.10;;;;;;4962597;28;20095;-64
2021/09/23 08:40:44;;;;;;;14.50;12.48;;;20.00;55.80;;;;;;4978930;28;20030;-64
2021/09/23 08:43:10;;;;;;;14.27;12.77;;;20.00;55.20;;;;;;4980031;28;20034;-64
2021/09/23 08:45:36;;;;;;;18.02;12.38;;;20.10;55.20;;;;;;4979310;28;20030;-63
2021/09/23 08:48:01;;;;;;;13.63;12.00;;;20.20;55.30;;;;;;4980127;28;20404;-63
2021/09/23 08:50:27;;;;;;;13.75;11.63;;;20.30;54.40;;;;;;4978476;28;20476;-63
2021/09/23 08:52:54;;;;;;;15.00;11.40;;;20.30;54.10;;;;;;4979916;28;20027;-63
2021/09/23 08:55:27;;;;;;;14.75;10.95;;;20.50;53.50;;;;;;4978159;28;20054;-63
2021/09/23 08:57:55;;;;;;;13.35;11.18;;;20.70;53.10;;;;;;4979752;28;20045;-63
2021/09/23 09:00:21;;;;;;;12.80;10.48;;;20.90;52.80;;;;;;4979621;28;20027;-63
2021/09/23 09:03:10;;;;;;;13.63;11.98;;;21.30;52.30;;;;;;4961469;28;20385;-63
2021/09/23 09:05:39;;;;;;;14.48;11.45;;;21.40;50.90;;;;;;4979470;28;20022;-63
2021/09/23 09:08:13;;;;;;;12.38;10.77;;;21.50;51.00;;;;;;4973433;28;20384;-63
2021/09/23 09:10:39;;;;;;;16.00;12.02;;;21.60;49.70;;;;;;4978503;28;20041;-64
2021/09/23 09:13:08;;;;;;;14.57;12.25;;;21.60;49.70;;;;;;4979842;28;20348;-63
2021/09/23 09:15:38;;;;;;;13.48;12.15;;;21.60;49.30;;;;;;4979017;28;20027;-63
2021/09/23 09:18:13;;;;;;;14.77;12.25;;;21.50;49.30;;;;;;4978016;28;20121;-63
2021/09/23 09:21:02;;;;;;;13.10;11.77;;;21.60;48.50;;;;;;4978826;28;20035;-63
2021/09/23 09:23:38;;;;;;;10.82;9.73;;;21.60;47.50;;;;;;4978527;28;20464;-62
2021/09/23 09:26:04;;;;;;;9.25;7.50;;;21.90;47.10;;;;;;4979304;28;20018;-63
2021/09/23 09:28:29;;;;;;;6.32;5.72;;;22.00;44.00;;;;;;4977802;28;20039;-61
2021/09/23 09:31:00;;;;;;;9.10;6.63;;;22.10;43.50;;;;;;4963586;28;20477;-62
2021/09/23 09:33:40;;;;;;;9.02;7.38;;;22.20;42.80;;;;;;4975199;28;20031;-62
2021/09/23 09:36:26;;;;;;;10.85;8.70;;;22.40;44.10;;;;;;4977626;28;20066;-62
2021/09/23 09:38:52;;;;;;;10.40;7.85;;;22.50;45.20;;;;;;4974393;28;20045;-62
2021/09/23 09:41:34;;;;;;;6.40;5.78;;;22.40;45.90;;;;;;4974217;28;20111;-63
2021/09/23 09:44:02;;;;;;;4.47;3.70;;;22.60;45.00;;;;;;4974132;28;20023;-63
2021/09/23 09:46:34;;;;;;;4.60;4.20;;;22.50;43.10;;;;;;4976032;28;20035;-63
2021/09/23 09:49:00;;;;;;;6.38;5.70;;;22.50;42.80;;;;;;4975334;28;20046;-63
2021/09/23 09:51:42;;;;;;;7.28;6.15;;;22.30;43.40;;;;;;4961884;28;20555;-63
2021/09/23 09:54:09;;;;;;;7.88;7.07;;;22.10;44.30;;;;;;4974968;28;20357;-63
2021/09/23 09:56:40;;;;;;;9.57;7.78;;;21.80;45.90;;;;;;4976225;28;20134;-63
2021/09/23 09:59:12;;;;;;;8.35;7.45;;;21.80;46.30;;;;;;4976113;28;20459;-63
2021/09/23 10:01:57;;;;;;;7.68;6.90;;;21.80;46.90;;;;;;4963117;28;20512;-63
2021/09/23 10:04:26;;;;;;;9.70;6.70;;;21.90;46.60;;;;;;4979312;28;20035;-63
2021/09/23 10:06:57;;;;;;;8.70;6.60;;;21.80;47.40;;;;;;4968686;28;20054;-63
2021/09/23 10:09:27;;;;;;;9.55;7.43;;;21.90;47.10;;;;;;4983652;28;20026;-63
2021/09/23 10:11:53;;;;;;;7.70;6.53;;;21.80;45.80;;;;;;4981196;28;20126;-63
2021/09/23 10:14:20;;;;;;;8.38;6.03;;;21.80;46.50;;;;;;4980562;28;20031;-69
2021/09/23 10:16:46;;;;;;;10.00;8.18;;;21.90;47.00;;;;;;4991062;28;20041;-69
2021/09/23 10:19:12;;;;;;;7.82;7.03;;;21.90;46.90;;;;;;4958961;28;20047;-68
2021/09/23 10:21:38;;;;;;;9.70;7.10;;;21.90;47.20;;;;;;4986836;28;20448;-68
2021/09/23 10:24:09;;;;;;;8.38;6.03;;;22.00;46.60;;;;;;4978829;28;20065;-68
2021/09/23 10:26:38;;;;;;;8.55;5.68;;;22.10;46.20;;;;;;4987486;28;20077;-63
2021/09/23 10:29:06;;;;;;;6.03;4.40;;;22.10;45.40;;;;;;4970309;28;20361;-63
2021/09/23 10:31:36;;;;;;;5.05;4.05;;;22.10;45.80;;;;;;4973887;28;20031;-64
2021/09/23 10:34:04;;;;;;;6.10;4.30;;;22.20;43.90;;;;;;4976221;28;20015;-63
2021/09/23 10:36:32;;;;;;;7.57;4.30;;;22.30;43.70;;;;;;4974700;28;20034;-63
2021/09/23 10:39:00;;;;;;;5.55;4.60;;;22.40;44.70;;;;;;4981413;28;20090;-63
2021/09/23 10:41:27;;;;;;;6.60;5.35;;;22.40;44.70;;;;;;4974414;28;20035;-64
2021/09/23 10:43:55;;;;;;;10.50;7.47;;;22.50;44.60;;;;;;4976639;28;20080;-64
2021/09/23 10:46:24;;;;;;;7.03;6.38;;;22.50;43.50;;;;;;4978101;28;20035;-64
2021/09/23 10:48:51;;;;;;;8.27;6.75;;;22.50;44.70;;;;;;4962533;28;20058;-63
2021/09/23 10:51:17;;;;;;;9.85;8.40;;;22.50;43.90;;;;;;4985085;28;20384;-63
2021/09/23 10:53:55;;;;;;;9.70;8.38;;;22.50;44.10;;;;;;4979010;28;20029;-62
2021/09/23 10:56:21;;;;;;;10.88;8.15;;;22.70;43.90;;;;;;4975273;28;20444;-63
2021/09/23 10:58:48;;;;;;;10.23;9.07;;;22.70;44.20;;;;;;4984237;28;20038;-63
2021/09/23 11:01:29;;;;;;;10.60;9.43;;;22.80;43.60;;;;;;4980515;28;20469;-63
2021/09/23 11:03:58;;;;;;;12.30;9.65;;;22.90;43.40;;;;;;4972445;28;20027;-62
2021/09/23 11:06:39;;;;;;;11.65;9.25;;;22.90;44.50;;;;;;4973232;28;20477;-62
2021/09/23 11:09:26;;;;;;;10.18;9.07;;;23.00;44.80;;;;;;4972895;28;20027;-62
2021/09/23 11:11:57;;;;;;;10.63;9.13;;;23.10;44.20;;;;;;4973714;28;20031;-62
2021/09/23 11:14:25;;;;;;;10.50;8.57;;;23.10;43.40;;;;;;4971755;28;20027;-62
2021/09/23 11:16:52;;;;;;;13.60;11.65;;;23.30;41.70;;;;;;4982214;28;20388;-63
2021/09/23 11:19:20;;;;;;;14.52;10.45;;;23.30;37.40;;;;;;4974126;28;20432;-63
2021/09/23 11:21:48;;;;;;;13.15;11.40;;;23.30;40.70;;;;;;4974499;28;20162;-63
2021/09/23 11:24:15;;;;;;;12.82;10.32;;;23.40;41.00;;;;;;4973192;28;20503;-63
2021/09/23 11:26:42;;;;;;;10.23;9.23;;;23.40;41.00;;;;;;4984102;28;20100;-63
2021/09/23 11:29:08;;;;;;;12.00;10.05;;;;;;;;;;4974247;28;20027;-63
2021/09/23 11:31:54;;;;;;;11.52;9.60;;;23.50;44.00;;;;;;4985202;28;20104;-63
2021/09/23 11:34:37;;;;;;;11.90;10.57;;;23.60;31.70;;;;;;4972549;28;20392;-63
2021/09/23 11:37:04;;;;;;;12.57;9.40;;;23.80;31.50;;;;;;4937351;28;20108;-63
2021/09/23 11:39:30;;;;;;;10.40;8.60;;;23.90;36.20;;;;;;4975365;28;20039;-63
2021/09/23 11:42:09;;;;;;;11.93;10.00;;;23.90;38.30;;;;;;4957266;28;20046;-63
2021/09/23 11:44:34;;;;;;;10.95;9.13;;;24.20;37.20;;;;;;4970362;28;20065;-63
2021/09/23 11:47:01;;;;;;;10.57;9.48;;;24.30;40.40;;;;;;4969367;28;20060;-62
2021/09/23 11:49:26;;;;;;;9.73;8.80;;;24.40;36.70;;;;;;4972278;28;20092;-62
2021/09/23 11:51:55;;;;;;;9.73;8.73;;;24.50;38.40;;;;;;4970936;28;20476;-62
2021/09/23 11:54:24;;;;;;;12.07;9.40;;;24.60;37.90;;;;;;4971307;28;20031;-63
2021/09/23 11:56:50;;;;;;;10.98;9.85;;;24.70;47.80;;;;;;4974040;28;20173;-62
2021/09/23 11:59:22;;;;;;;11.15;10.02;;;25.00;42.20;;;;;;4972076;28;20568;-62
2021/09/23 12:01:58;;;;;;;12.43;11.30;;;;;;;;;;4982269;28;20066;-63
2021/09/23 12:04:24;;;;;;;12.05;10.93;;;25.00;46.30;;;;;;4974274;28;20034;-63
2021/09/23 12:07:04;;;;;;;10.38;9.38;;;25.10;42.40;;;;;;4973301;28;20027;-63
2021/09/23 12:09:29;;;;;;;10.82;9.73;;;25.30;40.20;;;;;;4980633;28;20360;-63
2021/09/23 12:11:55;;;;;;;12.63;10.43;;;25.30;51.40;;;;;;4975329;28;20053;-64
2021/09/23 12:14:21;;;;;;;12.02;10.80;;;25.10;54.10;;;;;;4973600;28;20493;-62
2021/09/23 12:16:50;;;;;;;11.43;10.18;;;24.70;55.80;;;;;;4980290;28;20022;-62
2021/09/23 12:19:17;;;;;;;13.07;10.85;;;24.80;54.00;;;;;;4971946;28;20122;-62
2021/09/23 12:21:51;;;;;;;11.40;10.35;;;;;;;;;;4973221;28;20034;-63
2021/09/23 12:24:17;;;;;;;;;;;27.50;38.20;;;;;;4970877;28;20038;-63
2021/09/23 12:26:44;;;;;;;11.23;10.13;;;27.30;25.60;;;;;;4972929;28;19910;-63
2021/09/23 12:29:27;;;;;;;13.90;10.18;;;26.90;26.60;;;;;;4972439;28;20026;-63
2021/09/23 12:32:01;;;;;;;13.98;12.43;;;28.90;23.30;;;;;;4952412;28;20031;-63